Time;durP1;ratioP1;P1;durP2;ratioP2;P2;SDS_P1;SDS_P2;PMS_P1;PMS_P2;Temp;Humidity;BMP_temperature;BMP_pressure;BME280_temperature;BME280_humidity;BME280_pressure;Samples;Min_cycle;Max_cycle;Signal;HPM_P1;HPM_P2
2021/04/18 00:01:58;;;;;;;7.07;5.55;;;5.40;94.00;;;;;;5088860;28;20659;-81
2021/04/18 00:04:25;;;;;;;6.60;6.00;;;5.40;94.00;;;;;;5092851;28;20277;-81
2021/04/18 00:06:51;;;;;;;6.18;5.70;;;5.30;93.40;;;;;;5086936;28;20199;-81
2021/04/18 00:09:18;;;;;;;7.07;6.38;;;5.30;93.70;;;;;;5095500;28;20528;-81
2021/04/18 00:11:45;;;;;;;7.70;6.63;;;5.40;94.20;;;;;;5089059;28;20233;-81
2021/04/18 00:14:12;;;;;;;6.82;6.22;;;5.40;94.00;;;;;;5098144;28;20216;-81
2021/04/18 00:16:38;;;;;;;6.70;6.10;;;5.30;93.50;;;;;;5081612;28;20722;-81
2021/04/18 00:19:06;;;;;;;6.70;6.00;;;5.40;93.70;;;;;;5089355;28;20223;-81
2021/04/18 00:21:33;;;;;;;6.15;5.55;;;5.40;94.10;;;;;;5096701;28;20203;-81
2021/04/18 00:24:00;;;;;;;6.28;5.68;;;5.30;94.00;;;;;;5090609;28;20667;-82
2021/04/18 00:26:26;;;;;;;7.35;6.18;;;5.30;94.20;;;;;;5091942;28;20237;-81
2021/04/18 00:28:53;;;;;;;6.45;5.85;;;5.50;94.10;;;;;;5092302;28;20832;-81
2021/04/18 00:31:20;;;;;;;7.10;6.50;;;5.60;93.80;;;;;;5094931;28;20226;-81
2021/04/18 00:33:46;;;;;;;6.40;5.82;;;5.70;93.60;;;;;;5089258;28;20234;-81
2021/04/18 00:36:13;;;;;;;5.90;5.40;;;5.80;93.20;;;;;;5093502;28;20242;-81
2021/04/18 00:38:39;;;;;;;6.35;5.75;;;5.90;92.60;;;;;;5090591;28;20219;-81
2021/04/18 00:41:06;;;;;;;7.97;5.18;;;6.00;92.10;;;;;;5092390;28;20206;-81
2021/04/18 00:43:32;;;;;;;6.22;5.47;;;6.00;91.40;;;;;;5091500;28;20299;-81
2021/04/18 00:45:59;;;;;;;6.60;5.72;;;5.90;91.60;;;;;;5094975;28;20261;-81
2021/04/18 00:48:25;;;;;;;7.47;5.43;;;5.90;91.60;;;;;;5093104;28;20194;-82
2021/04/18 00:50:51;;;;;;;6.40;5.88;;;5.90;92.10;;;;;;5091084;28;20206;-81
2021/04/18 00:53:18;;;;;;;6.85;6.15;;;5.90;91.80;;;;;;5092347;28;20638;-81
2021/04/18 00:55:45;;;;;;;7.05;5.60;;;5.90;91.60;;;;;;5084359;28;20281;-82
2021/04/18 00:58:12;;;;;;;6.63;5.93;;;6.00;91.40;;;;;;5092005;28;20751;-81
2021/04/18 01:00:39;;;;;;;6.60;6.00;;;6.00;91.00;;;;;;5089892;28;20281;-82
2021/04/18 01:03:07;;;;;;;6.95;6.03;;;6.00;90.70;;;;;;5092133;28;20600;-81
2021/04/18 01:05:35;;;;;;;6.15;5.55;;;5.90;90.70;;;;;;5088811;28;20241;-81
2021/04/18 01:08:09;;;;;;;6.88;5.63;;;5.80;91.20;;;;;;5086246;28;20206;-81
2021/04/18 01:10:39;;;;;;;8.77;6.60;;;5.80;91.70;;;;;;5085035;28;20533;-81
2021/04/18 01:13:07;;;;;;;6.20;5.57;;;5.80;91.60;;;;;;5090786;28;20206;-81
2021/04/18 01:15:34;;;;;;;7.07;6.40;;;5.80;91.60;;;;;;5096071;28;20205;-81
2021/04/18 01:18:01;;;;;;;8.10;7.32;;;5.80;91.70;;;;;;5086819;28;20707;-81
2021/04/18 01:20:30;;;;;;;6.32;5.72;;;5.80;91.40;;;;;;5086505;28;20609;-82
2021/04/18 01:22:59;;;;;;;7.45;6.55;;;5.80;91.50;;;;;;5091468;28;20194;-81
2021/04/18 01:25:28;;;;;;;8.18;6.25;;;5.80;91.20;;;;;;5085673;28;20210;-81
2021/04/18 01:27:56;;;;;;;8.13;7.32;;;5.70;91.00;;;;;;5091553;28;20854;-82
2021/04/18 01:30:26;;;;;;;7.45;6.60;;;5.80;91.10;;;;;;5084298;28;20203;-81
2021/04/18 01:32:57;;;;;;;7.55;6.85;;;5.70;90.90;;;;;;5091500;28;20195;-81
2021/04/18 01:35:25;;;;;;;8.00;6.93;;;5.80;91.00;;;;;;5093777;28;20873;-81
2021/04/18 01:37:54;;;;;;;7.45;6.75;;;5.70;90.90;;;;;;5091156;28;20221;-82
2021/04/18 01:40:26;;;;;;;8.75;7.70;;;5.70;90.80;;;;;;5088913;28;20241;-81
2021/04/18 01:42:54;;;;;;;8.30;6.75;;;5.70;90.90;;;;;;5092385;28;20206;-82
2021/04/18 01:45:23;;;;;;;8.48;7.63;;;5.70;90.90;;;;;;5098200;28;20553;-81
2021/04/18 01:47:50;;;;;;;7.70;6.95;;;5.70;91.20;;;;;;5084969;28;20244;-82
2021/04/18 01:50:19;;;;;;;7.78;6.68;;;5.70;90.90;;;;;;5098431;28;20204;-81
2021/04/18 01:52:46;;;;;;;9.63;7.57;;;5.70;91.10;;;;;;5083753;28;20206;-81
2021/04/18 01:55:17;;;;;;;7.80;7.03;;;5.60;91.40;;;;;;5090230;28;20214;-81
2021/04/18 01:57:44;;;;;;;7.80;7.05;;;5.70;91.50;;;;;;5087868;28;20280;-81
2021/04/18 02:00:13;;;;;;;9.95;8.23;;;5.70;91.30;;;;;;5089648;28;20198;-81
2021/04/18 02:02:41;;;;;;;8.00;7.20;;;5.60;91.30;;;;;;5093003;28;20215;-81
2021/04/18 02:05:10;;;;;;;8.57;7.20;;;5.70;91.30;;;;;;5091717;28;20206;-81
2021/04/18 02:07:40;;;;;;;8.45;7.65;;;5.60;91.40;;;;;;5081635;28;20221;-82
2021/04/18 02:10:09;;;;;;;8.73;7.93;;;5.70;91.90;;;;;;5091717;28;20202;-82
2021/04/18 02:12:37;;;;;;;8.20;7.40;;;5.70;91.90;;;;;;5096137;28;20301;-82
2021/04/18 02:15:07;;;;;;;8.73;7.82;;;5.80;91.70;;;;;;5084465;28;20198;-82
2021/04/18 02:17:34;;;;;;;9.02;8.13;;;5.70;91.50;;;;;;5090855;28;20679;-81
2021/04/18 02:20:01;;;;;;;8.85;7.93;;;5.80;91.40;;;;;;5089778;28;20205;-82
2021/04/18 02:22:27;;;;;;;8.40;7.43;;;5.80;91.20;;;;;;5089298;28;20210;-81
2021/04/18 02:24:54;;;;;;;7.78;7.03;;;5.80;91.40;;;;;;5085916;28;20195;-82
2021/04/18 02:27:20;;;;;;;9.27;7.97;;;5.80;91.00;;;;;;5091911;28;20269;-81
2021/04/18 02:29:47;;;;;;;14.07;8.40;;;5.70;91.30;;;;;;5087711;28;20234;-81
2021/04/18 02:32:14;;;;;;;9.40;8.50;;;5.70;91.60;;;;;;5092249;28;20538;-82
2021/04/18 02:34:40;;;;;;;10.10;7.80;;;5.70;91.40;;;;;;5091700;28;20187;-81
2021/04/18 02:37:07;;;;;;;8.90;7.93;;;5.70;91.70;;;;;;5088033;28;20205;-82
2021/04/18 02:39:33;;;;;;;10.10;9.13;;;5.70;91.90;;;;;;5092367;28;20607;-82
2021/04/18 02:41:59;;;;;;;8.90;7.65;;;5.70;91.70;;;;;;5089869;28;20213;-81
2021/04/18 02:44:26;;;;;;;9.02;8.10;;;5.70;91.90;;;;;;5096996;28;20588;-82
2021/04/18 02:46:52;;;;;;;10.05;9.05;;;5.70;91.60;;;;;;5085660;28;20194;-82
2021/04/18 02:49:19;;;;;;;9.32;8.40;;;5.70;91.90;;;;;;5092882;28;20663;-82
2021/04/18 02:51:46;;;;;;;11.20;9.35;;;5.70;91.70;;;;;;5087834;28;20539;-82
2021/04/18 02:54:12;;;;;;;9.82;8.80;;;5.70;91.60;;;;;;5089591;28;20203;-82
2021/04/18 02:56:39;;;;;;;12.57;9.57;;;5.70;91.60;;;;;;5090117;28;20552;-82
2021/04/18 02:59:05;;;;;;;10.60;9.50;;;5.80;91.70;;;;;;5088777;28;20217;-82
2021/04/18 03:01:31;;;;;;;10.18;8.80;;;5.70;92.00;;;;;;5090624;28;20210;-82
2021/04/18 03:04:00;;;;;;;11.25;8.98;;;5.80;92.40;;;;;;5089738;28;20294;-82
2021/04/18 03:06:27;;;;;;;10.93;9.82;;;5.80;92.30;;;;;;5092936;28;20213;-82
2021/04/18 03:08:54;;;;;;;10.63;9.43;;;5.80;91.80;;;;;;5088738;28;20206;-82
2021/04/18 03:11:20;;;;;;;10.77;9.00;;;5.80;91.70;;;;;;5094043;28;20305;-82
2021/04/18 03:13:47;;;;;;;9.63;8.68;;;5.80;91.90;;;;;;5091841;28;20198;-81
2021/04/18 03:16:14;;;;;;;10.10;9.10;;;5.80;91.90;;;;;;5089111;28;20217;-82
2021/04/18 03:18:40;;;;;;;9.40;8.52;;;5.60;92.10;;;;;;5092968;28;20219;-82
2021/04/18 03:21:07;;;;;;;10.48;9.15;;;5.60;92.30;;;;;;5089405;28;20187;-82
2021/04/18 03:23:35;;;;;;;10.77;9.10;;;5.60;92.80;;;;;;5094258;28;20187;-81
2021/04/18 03:26:02;;;;;;;10.93;8.50;;;5.70;92.80;;;;;;5084140;28;20608;-82
2021/04/18 03:28:28;;;;;;;8.73;7.88;;;5.70;92.60;;;;;;5098711;28;20281;-81
2021/04/18 03:30:55;;;;;;;11.10;9.20;;;5.50;92.80;;;;;;5096414;28;20191;-82
2021/04/18 03:33:23;;;;;;;10.80;9.77;;;5.50;93.70;;;;;;5094312;28;20293;-81
2021/04/18 03:35:50;;;;;;;11.60;9.88;;;5.40;93.50;;;;;;5090619;28;20207;-82
2021/04/18 03:38:17;;;;;;;10.20;9.18;;;5.50;94.00;;;;;;5094927;28;20214;-82
2021/04/18 03:40:46;;;;;;;10.50;9.50;;;5.50;94.10;;;;;;5089366;28;20200;-81
2021/04/18 03:43:14;;;;;;;12.15;9.82;;;5.40;94.00;;;;;;5091632;28;20199;-81
2021/04/18 03:45:42;;;;;;;15.52;9.73;;;5.20;93.80;;;;;;5094286;28;20190;-81
2021/04/18 03:48:10;;;;;;;12.13;9.85;;;5.00;94.10;;;;;;5087581;28;20270;-81
2021/04/18 03:50:37;;;;;;;9.35;8.45;;;4.80;94.70;;;;;;5091389;28;20671;-81
2021/04/18 03:53:05;;;;;;;11.63;9.52;;;4.70;95.30;;;;;;5090544;28;20202;-81
2021/04/18 03:55:33;;;;;;;11.45;9.65;;;4.50;95.80;;;;;;5093295;28;20632;-81
2021/04/18 03:58:01;;;;;;;11.05;9.68;;;4.50;96.40;;;;;;5087817;28;20223;-81
2021/04/18 04:00:29;;;;;;;13.10;8.70;;;4.60;96.60;;;;;;5091763;28;20636;-81
2021/04/18 04:02:56;;;;;;;10.40;9.20;;;4.70;96.80;;;;;;5087666;28;20730;-81
2021/04/18 04:05:23;;;;;;;10.40;9.23;;;4.70;96.20;;;;;;5093973;28;20213;-81
2021/04/18 04:07:50;;;;;;;12.35;9.63;;;4.70;96.60;;;;;;5089441;28;20218;-81
2021/04/18 04:10:18;;;;;;;11.40;8.05;;;4.80;96.50;;;;;;5097119;28;20736;-81
2021/04/18 04:12:45;;;;;;;10.25;9.25;;;4.90;96.60;;;;;;5093062;28;20209;-81
2021/04/18 04:15:14;;;;;;;13.00;9.82;;;4.80;96.20;;;;;;5089475;28;20230;-81
2021/04/18 04:17:42;;;;;;;11.57;9.30;;;4.90;96.20;;;;;;5092065;28;20269;-81
2021/04/18 04:20:12;;;;;;;13.25;10.85;;;4.80;95.80;;;;;;5089101;28;20215;-81
2021/04/18 04:22:39;;;;;;;13.05;10.40;;;4.60;96.10;;;;;;5093126;28;20191;-81
2021/04/18 04:25:08;;;;;;;11.32;9.43;;;4.60;96.70;;;;;;5087340;28;20195;-81
2021/04/18 04:27:35;;;;;;;11.52;9.35;;;4.60;96.50;;;;;;5084567;28;20647;-81
2021/04/18 04:30:04;;;;;;;10.55;9.25;;;4.70;97.00;;;;;;5086248;28;20760;-81
2021/04/18 04:32:32;;;;;;;12.50;9.65;;;4.70;96.60;;;;;;5091646;28;20885;-81
2021/04/18 04:35:00;;;;;;;10.90;9.75;;;4.60;96.20;;;;;;5088678;28;20260;-81
2021/04/18 04:37:29;;;;;;;11.63;10.43;;;4.50;96.70;;;;;;5091507;28;20219;-81
2021/04/18 04:39:55;;;;;;;11.20;8.32;;;4.60;97.20;;;;;;5094213;28;21065;-81
2021/04/18 04:42:22;;;;;;;14.68;9.65;;;4.80;97.20;;;;;;5088664;28;20667;-81
2021/04/18 04:44:50;;;;;;;13.68;9.93;;;4.90;97.20;;;;;;5095928;28;20293;-81
2021/04/18 04:47:18;;;;;;;10.18;9.07;;;5.00;96.60;;;;;;5085830;28;20680;-81
2021/04/18 04:49:46;;;;;;;13.82;9.68;;;4.90;96.10;;;;;;5099838;28;20202;-81
2021/04/18 04:52:13;;;;;;;9.77;8.82;;;4.80;96.30;;;;;;5086263;28;20211;-81
2021/04/18 04:54:40;;;;;;;12.25;10.45;;;4.70;96.30;;;;;;5100033;28;20289;-81
2021/04/18 04:57:07;;;;;;;10.77;9.68;;;4.80;96.90;;;;;;5086844;28;20218;-81
2021/04/18 04:59:35;;;;;;;10.50;9.40;;;4.90;96.90;;;;;;5092257;28;20280;-82
2021/04/18 05:02:02;;;;;;;10.25;9.27;;;4.90;96.70;;;;;;5087230;28;20297;-81
2021/04/18 05:04:29;;;;;;;12.25;9.43;;;4.90;96.30;;;;;;5091381;28;20248;-82
2021/04/18 05:06:58;;;;;;;10.65;9.55;;;5.20;96.40;;;;;;5099404;28;20206;-81
2021/04/18 05:09:26;;;;;;;11.63;10.43;;;5.40;96.00;;;;;;5092358;28;20286;-82
2021/04/18 05:11:54;;;;;;;10.93;9.73;;;5.40;95.60;;;;;;5091255;28;20203;-82
2021/04/18 05:14:21;;;;;;;10.52;9.52;;;5.60;95.50;;;;;;5091066;28;20198;-82
2021/04/18 05:16:48;;;;;;;17.02;12.20;;;5.80;95.10;;;;;;5085068;28;20290;-81
2021/04/18 05:19:16;;;;;;;16.88;11.52;;;5.80;94.50;;;;;;5086781;28;20242;-81
2021/04/18 05:21:43;;;;;;;12.63;9.85;;;5.90;94.20;;;;;;5097319;28;20197;-81
2021/04/18 05:24:11;;;;;;;10.77;9.07;;;5.80;93.90;;;;;;5089651;28;20217;-81
2021/04/18 05:26:38;;;;;;;10.80;9.27;;;5.90;94.00;;;;;;5081804;28;20198;-81
2021/04/18 05:29:05;;;;;;;12.52;10.30;;;6.00;93.90;;;;;;5090364;28;20348;-82
2021/04/18 05:31:32;;;;;;;10.25;9.13;;;6.10;93.60;;;;;;5087456;28;20199;-81
2021/04/18 05:34:00;;;;;;;11.50;9.75;;;6.10;92.90;;;;;;5085950;28;20737;-81
2021/04/18 05:36:27;;;;;;;10.73;8.52;;;6.10;92.50;;;;;;5096625;28;20210;-82
2021/04/18 05:38:54;;;;;;;11.43;9.43;;;6.20;92.40;;;;;;5089006;28;20206;-82
2021/04/18 05:41:22;;;;;;;11.05;9.32;;;5.90;92.80;;;;;;5088164;28;20698;-81
2021/04/18 05:43:49;;;;;;;10.63;9.23;;;5.80;93.10;;;;;;5093764;28;20202;-81
2021/04/18 05:46:17;;;;;;;10.15;8.73;;;5.80;93.50;;;;;;5097472;28;20530;-81
2021/04/18 05:48:44;;;;;;;9.15;8.35;;;5.90;93.50;;;;;;5092165;28;20201;-81
2021/04/18 05:51:11;;;;;;;15.45;9.70;;;6.00;93.40;;;;;;5094100;28;20214;-81
2021/04/18 05:53:37;;;;;;;10.73;9.27;;;5.90;93.20;;;;;;5085730;28;20619;-81
2021/04/18 05:56:04;;;;;;;11.73;9.65;;;5.50;93.70;;;;;;5085879;28;20233;-81
2021/04/18 05:58:31;;;;;;;10.27;9.15;;;5.50;94.40;;;;;;5087173;28;20222;-81
2021/04/18 06:00:58;;;;;;;10.18;9.10;;;5.50;94.10;;;;;;5086415;28;20229;-81
2021/04/18 06:03:24;;;;;;;12.13;10.00;;;5.60;94.40;;;;;;5092275;28;20237;-81
2021/04/18 06:05:51;;;;;;;10.57;9.25;;;5.50;94.30;;;;;;5090776;28;20199;-82
2021/04/18 06:08:17;;;;;;;12.02;9.73;;;5.40;94.40;;;;;;5094055;28;20648;-81
2021/04/18 06:10:43;;;;;;;12.32;9.70;;;5.30;94.90;;;;;;5086008;28;20224;-81
2021/04/18 06:13:10;;;;;;;12.05;9.75;;;5.10;94.80;;;;;;5081665;28;20210;-81
2021/04/18 06:15:37;;;;;;;9.88;8.80;;;5.40;95.10;;;;;;5089589;28;20207;-81
2021/04/18 06:18:04;;;;;;;10.68;9.40;;;5.60;94.70;;;;;;5084265;28;20234;-81
2021/04/18 06:20:30;;;;;;;11.50;10.25;;;5.80;94.40;;;;;;5083510;28;20286;-81
2021/04/18 06:22:57;;;;;;;10.93;9.82;;;5.40;93.70;;;;;;5094193;28;20251;-80
2021/04/18 06:25:23;;;;;;;11.10;9.90;;;5.10;94.90;;;;;;5088267;28;20695;-81
2021/04/18 06:27:50;;;;;;;10.60;8.95;;;5.20;95.60;;;;;;5090177;28;20226;-82
2021/04/18 06:30:17;;;;;;;10.18;9.25;;;5.30;95.60;;;;;;5090975;28;20226;-82
2021/04/18 06:32:44;;;;;;;12.82;9.70;;;5.70;95.80;;;;;;5093286;28;20679;-82
2021/04/18 06:35:12;;;;;;;11.15;9.95;;;6.10;95.00;;;;;;5098195;28;20210;-81
2021/04/18 06:37:38;;;;;;;15.32;10.70;;;6.20;93.70;;;;;;5081909;28;20202;-81
2021/04/18 06:40:05;;;;;;;11.98;9.85;;;5.90;93.40;;;;;;5084423;28;20239;-83
2021/04/18 06:42:37;;;;;;;10.32;9.27;;;6.20;93.30;;;;;;5083407;28;20203;-84
2021/04/18 06:45:07;;;;;;;10.55;9.48;;;6.30;92.70;;;;;;5091751;28;20207;-84
2021/04/18 06:47:36;;;;;;;11.35;10.25;;;6.60;92.50;;;;;;5089850;28;20286;-84
2021/04/18 06:50:05;;;;;;;12.68;10.40;;;6.70;92.40;;;;;;5094228;28;20207;-84
2021/04/18 06:52:33;;;;;;;13.38;10.75;;;6.90;91.90;;;;;;5085060;28;20213;-84
2021/04/18 06:55:00;;;;;;;10.85;9.73;;;6.80;91.20;;;;;;5091864;28;20609;-84
2021/04/18 06:57:26;;;;;;;10.73;9.65;;;6.90;90.90;;;;;;5088299;28;20203;-84
2021/04/18 06:59:53;;;;;;;13.43;10.88;;;7.00;90.70;;;;;;5093827;28;20209;-84
2021/04/18 07:02:24;;;;;;;11.93;10.65;;;7.10;90.40;;;;;;5086088;28;20245;-84
2021/04/18 07:04:57;;;;;;;12.82;10.07;;;7.20;90.10;;;;;;5090387;28;20281;-84
2021/04/18 07:07:31;;;;;;;12.45;10.88;;;7.20;89.70;;;;;;5093476;28;20593;-83
2021/04/18 07:09:58;;;;;;;10.40;9.30;;;7.40;89.10;;;;;;5092778;28;20202;-84
2021/04/18 07:12:26;;;;;;;14.05;9.65;;;7.50;88.00;;;;;;5096448;28;20194;-84
2021/04/18 07:14:52;;;;;;;10.15;9.15;;;7.60;87.40;;;;;;5092086;28;20294;-83
2021/04/18 07:17:19;;;;;;;14.40;11.50;;;7.80;87.00;;;;;;5086076;28;20272;-81
2021/04/18 07:19:49;;;;;;;12.52;9.65;;;7.80;86.10;;;;;;5088742;28;20639;-83
2021/04/18 07:22:17;;;;;;;10.77;9.38;;;8.00;86.00;;;;;;5094152;28;20203;-85
2021/04/18 07:24:52;;;;;;;11.55;9.73;;;8.10;86.00;;;;;;5088661;28;20199;-84
2021/04/18 07:27:19;;;;;;;10.45;9.38;;;8.30;86.10;;;;;;5090134;28;20194;-83
2021/04/18 07:29:53;;;;;;;10.55;9.57;;;8.50;85.10;;;;;;5086212;28;20192;-83
2021/04/18 07:32:22;;;;;;;9.77;8.82;;;8.70;84.00;;;;;;5089297;28;20218;-83
2021/04/18 07:34:49;;;;;;;11.32;9.40;;;8.60;81.90;;;;;;5092839;28;20260;-84
2021/04/18 07:37:17;;;;;;;10.93;9.30;;;8.60;81.60;;;;;;5087831;28;20234;-84
2021/04/18 07:39:47;;;;;;;12.95;9.73;;;8.60;81.40;;;;;;5097097;28;20245;-82
2021/04/18 07:42:35;;;;;;;10.40;9.30;;;8.60;79.80;;;;;;5097257;28;20281;-85
2021/04/18 07:45:05;;;;;;;9.32;8.30;;;8.60;78.90;;;;;;5088125;28;20241;-84
2021/04/18 07:47:34;;;;;;;10.23;9.23;;;8.50;78.10;;;;;;5087350;28;20758;-84
2021/04/18 07:50:01;;;;;;;8.48;7.68;;;8.50;78.00;;;;;;5083530;28;20667;-84
2021/04/18 07:52:29;;;;;;;9.52;8.43;;;8.40;78.60;;;;;;5095589;28;20729;-84
2021/04/18 07:54:55;;;;;;;9.85;8.88;;;8.30;78.80;;;;;;5097984;28;20710;-85
2021/04/18 07:57:22;;;;;;;10.05;8.98;;;8.20;78.50;;;;;;5092691;28;20207;-83
2021/04/18 07:59:49;;;;;;;9.85;8.90;;;8.30;78.50;;;;;;5095539;28;20305;-84
2021/04/18 08:02:18;;;;;;;9.80;8.18;;;8.30;78.80;;;;;;5093075;28;20210;-84
2021/04/18 08:04:47;;;;;;;13.05;8.23;;;8.50;79.10;;;;;;5093512;28;20510;-84
2021/04/18 08:07:15;;;;;;;12.23;8.90;;;8.60;78.80;;;;;;5093585;28;20210;-85
2021/04/18 08:09:41;;;;;;;12.45;10.32;;;8.70;78.60;;;;;;5093801;28;20230;-84
2021/04/18 08:12:12;;;;;;;10.95;9.80;;;8.70;78.40;;;;;;5093942;28;20264;-84
2021/04/18 08:14:40;;;;;;;9.65;8.75;;;8.90;78.30;;;;;;5095025;28;20595;-85
2021/04/18 08:17:09;;;;;;;11.05;9.90;;;9.10;78.50;;;;;;5093407;28;20187;-84
2021/04/18 08:19:37;;;;;;;11.27;9.63;;;9.20;78.20;;;;;;5091913;28;20222;-84
2021/04/18 08:22:04;;;;;;;8.75;7.32;;;9.20;76.60;;;;;;5092506;28;20199;-83
2021/04/18 08:24:33;;;;;;;9.38;8.10;;;9.20;76.50;;;;;;5089066;28;20211;-87
2021/04/18 08:27:02;;;;;;;9.30;7.20;;;9.10;76.40;;;;;;5086529;28;21002;-85
2021/04/18 08:29:29;;;;;;;7.50;6.50;;;9.10;75.90;;;;;;5097054;28;20194;-86
2021/04/18 08:32:11;;;;;;;7.90;6.70;;;9.00;74.50;;;;;;5083493;28;20199;-85
2021/04/18 08:34:51;;;;;;;7.38;5.80;;;9.00;75.20;;;;;;5090578;28;20325;-84
2021/04/18 08:37:21;;;;;;;7.75;5.95;;;8.90;73.80;;;;;;5090806;28;20194;-84
2021/04/18 08:39:49;;;;;;;7.10;6.40;;;8.90;74.20;;;;;;5092896;28;20222;-83
2021/04/18 08:42:29;;;;;;;8.15;7.05;;;8.90;74.30;;;;;;5105471;28;20197;-84
2021/04/18 08:44:57;;;;;;;7.60;6.28;;;8.90;76.10;;;;;;5093660;28;20198;-83
2021/04/18 08:47:26;;;;;;;9.23;6.55;;;7.80;75.60;;;;;;5096440;28;20202;-84
2021/04/18 08:49:57;;;;;;;9.63;6.65;;;7.90;78.80;;;;;;5109156;28;20194;-84
2021/04/18 08:52:25;;;;;;;7.15;6.20;;;8.40;77.50;;;;;;5099418;28;20208;-84
2021/04/18 08:54:54;;;;;;;9.60;8.27;;;8.70;76.10;;;;;;5102185;28;20202;-84
2021/04/18 08:57:23;;;;;;;9.40;7.00;;;8.80;74.20;;;;;;5107675;28;20206;-84
2021/04/18 08:59:52;;;;;;;9.75;7.75;;;8.80;73.90;;;;;;5095965;28;20231;-84
2021/04/18 09:02:19;;;;;;;13.68;6.63;;;8.90;75.00;;;;;;5106331;28;20216;-85
2021/04/18 09:04:48;;;;;;;8.55;7.55;;;8.80;75.30;;;;;;5092830;28;20268;-85
2021/04/18 09:07:15;;;;;;;7.38;6.63;;;8.60;76.30;;;;;;5092887;28;20205;-83
2021/04/18 09:09:42;;;;;;;9.43;6.53;;;8.80;75.70;;;;;;5091800;28;20239;-84
2021/04/18 09:12:10;;;;;;;9.27;7.10;;;9.10;74.90;;;;;;5092551;28;20199;-84
2021/04/18 09:14:41;;;;;;;8.10;7.20;;;9.30;73.50;;;;;;5098522;28;20190;-85
2021/04/18 09:17:09;;;;;;;8.05;7.25;;;8.90;70.90;;;;;;5111909;28;20267;-84
2021/04/18 09:19:36;;;;;;;8.63;6.95;;;8.90;73.30;;;;;;5097410;28;20210;-84
2021/04/18 09:22:09;;;;;;;14.00;9.13;;;9.20;73.60;;;;;;5088670;28;20206;-84
2021/04/18 09:24:38;;;;;;;7.70;6.90;;;9.50;72.80;;;;;;5101596;28;20214;-83
2021/04/18 09:27:08;;;;;;;9.82;5.93;;;9.70;71.00;;;;;;5097667;28;20198;-84
2021/04/18 09:29:36;;;;;;;8.88;6.45;;;9.20;70.40;;;;;;5107782;28;20271;-85
2021/04/18 09:32:06;;;;;;;6.85;6.00;;;8.70;70.10;;;;;;5092038;28;20202;-83
2021/04/18 09:34:34;;;;;;;8.27;6.60;;;8.50;71.50;;;;;;5092457;28;20214;-84
2021/04/18 09:37:05;;;;;;;8.63;7.72;;;8.70;73.70;;;;;;5086061;28;20232;-84
2021/04/18 09:39:51;;;;;;;7.88;7.15;;;9.10;71.30;;;;;;5092528;28;20578;-84
2021/04/18 09:42:18;;;;;;;7.55;6.75;;;9.40;70.40;;;;;;5100989;28;20282;-83
2021/04/18 09:44:46;;;;;;;9.23;7.38;;;9.60;69.90;;;;;;5091619;28;20256;-84
2021/04/18 09:47:27;;;;;;;8.00;7.03;;;8.90;68.40;;;;;;5091532;28;20202;-84
2021/04/18 09:49:56;;;;;;;8.10;7.30;;;9.00;71.60;;;;;;5091424;28;20201;-84
2021/04/18 09:52:25;;;;;;;8.13;6.65;;;8.50;70.60;;;;;;5090735;28;20286;-84
2021/04/18 09:54:53;;;;;;;7.95;6.72;;;8.70;73.60;;;;;;5070548;28;20286;-84
2021/04/18 09:57:22;;;;;;;8.32;7.15;;;9.20;71.70;;;;;;5091372;28;20244;-83
2021/04/18 10:00:24;;;;;;;8.40;7.50;;;9.60;70.00;;;;;;5089843;28;20222;-84
2021/04/18 10:02:57;;;;;;;12.00;8.40;;;10.00;66.50;;;;;;5087304;28;20218;-84
2021/04/18 10:05:25;;;;;;;10.10;8.20;;;10.30;64.20;;;;;;5090623;28;20230;-84
2021/04/18 10:08:13;;;;;;;9.48;7.78;;;10.30;65.70;;;;;;5090450;28;20223;-84
2021/04/18 10:10:40;;;;;;;14.43;7.53;;;10.30;63.10;;;;;;5088073;28;20585;-84
2021/04/18 10:13:47;;;;;;;11.00;7.00;;;9.90;65.90;;;;;;5090143;28;20233;-85
2021/04/18 10:16:24;;;;;;;8.37;7.47;;;10.40;65.30;;;;;;5087000;28;20633;-85
2021/04/18 10:19:14;;;;;;;9.00;8.10;;;10.10;64.80;;;;;;5090208;28;20648;-85
2021/04/18 10:21:41;;;;;;;8.85;7.95;;;9.30;64.60;;;;;;5088466;28;20218;-84
2021/04/18 10:24:36;;;;;;;11.03;7.27;;;9.80;67.20;;;;;;5090717;28;20210;-84
2021/04/18 10:27:06;;;;;;;8.43;7.50;;;10.40;66.00;;;;;;5075167;28;21154;-85
2021/04/18 10:29:33;;;;;;;10.43;7.37;;;10.80;65.00;;;;;;5070646;28;20612;-84
2021/04/18 10:31:59;;;;;;;10.47;7.90;;;11.10;63.20;;;;;;5071097;28;20644;-84
2021/04/18 10:34:26;;;;;;;9.60;8.40;;;11.20;63.20;;;;;;5070628;28;20683;-84
2021/04/18 10:36:54;;;;;;;10.00;8.63;;;11.10;61.70;;;;;;5085527;28;20632;-83
2021/04/18 10:39:20;;;;;;;10.77;9.63;;;11.20;61.20;;;;;;5090349;28;20657;-84
2021/04/18 10:41:48;;;;;;;9.93;8.13;;;11.30;59.90;;;;;;5091103;28;20608;-84
2021/04/18 10:44:16;;;;;;;9.23;8.33;;;11.40;60.20;;;;;;5090769;28;20635;-84
2021/04/18 10:46:43;;;;;;;11.97;9.33;;;11.50;60.40;;;;;;5090753;28;21210;-84
2021/04/18 10:49:09;;;;;;;9.23;8.30;;;11.60;59.60;;;;;;5090439;28;20620;-84
2021/04/18 10:51:36;;;;;;;10.40;8.90;;;11.40;59.20;;;;;;5090631;28;20627;-85
2021/04/18 10:54:02;;;;;;;9.87;8.43;;;11.40;59.50;;;;;;5090548;28;20621;-84
2021/04/18 10:56:30;;;;;;;11.60;9.10;;;11.60;58.90;;;;;;5089972;28;20654;-84
2021/04/18 10:58:58;;;;;;;13.40;10.03;;;11.80;58.30;;;;;;5088870;28;20755;-84
2021/04/18 11:01:25;;;;;;;15.80;8.90;;;11.90;58.90;;;;;;5088904;28;20671;-84
2021/04/18 11:03:52;;;;;;;12.23;10.17;;;12.00;58.90;;;;;;5110759;28;20615;-84
2021/04/18 11:06:18;;;;;;;9.00;8.00;;;11.70;59.40;;;;;;5110579;28;20665;-84
2021/04/18 11:08:45;;;;;;;9.90;8.87;;;11.80;59.90;;;;;;5110437;28;20622;-84
2021/04/18 11:11:11;;;;;;;12.40;9.30;;;11.80;59.00;;;;;;5092200;28;20615;-84
2021/04/18 11:13:38;;;;;;;11.53;8.60;;;11.90;58.70;;;;;;5110499;28;21258;-84
2021/04/18 11:16:05;;;;;;;10.30;8.47;;;12.10;57.70;;;;;;5111086;28;20660;-83
2021/04/18 11:18:33;;;;;;;11.60;9.30;;;12.20;57.40;;;;;;5110292;28;20693;-84
2021/04/18 11:20:59;;;;;;;9.00;8.00;;;12.20;57.20;;;;;;5110506;28;20619;-84
2021/04/18 11:23:26;;;;;;;8.60;7.80;;;11.70;58.10;;;;;;5091984;28;20627;-84
2021/04/18 11:25:54;;;;;;;9.70;8.70;;;10.90;57.70;;;;;;5098476;28;20616;-85
2021/04/18 11:28:26;;;;;;;11.63;8.97;;;10.90;59.30;;;;;;5100024;28;20726;-85
2021/04/18 11:30:54;;;;;;;11.80;9.70;;;10.90;59.30;;;;;;5104291;28;20624;-84
2021/04/18 11:33:22;;;;;;;9.63;8.73;;;10.80;59.90;;;;;;5107952;28;20672;-84
2021/04/18 11:35:51;;;;;;;12.30;7.77;;;10.50;59.80;;;;;;5097464;28;21163;-84
2021/04/18 11:38:18;;;;;;;9.50;8.30;;;11.00;59.80;;;;;;5109899;28;21088;-84
2021/04/18 11:40:46;;;;;;;10.07;9.00;;;11.20;58.90;;;;;;5084002;28;20622;-85
2021/04/18 11:43:12;;;;;;;10.00;8.17;;;10.70;58.80;;;;;;5101650;28;20682;-85
2021/04/18 11:45:39;;;;;;;9.27;8.10;;;10.90;60.80;;;;;;5109184;28;20961;-84
2021/04/18 11:48:06;;;;;;;9.57;8.60;;;11.30;61.00;;;;;;5107633;28;20659;-84
2021/04/18 11:50:34;;;;;;;9.03;7.73;;;11.60;59.30;;;;;;5098127;28;20620;-84
2021/04/18 11:53:01;;;;;;;9.50;7.97;;;11.50;58.60;;;;;;5110822;28;20647;-84
2021/04/18 11:55:30;;;;;;;7.87;7.17;;;10.10;59.00;;;;;;5101183;28;20643;-85
2021/04/18 11:57:57;;;;;;;8.13;7.30;;;10.20;61.10;;;;;;5102318;28;20686;-84
2021/04/18 12:00:24;;;;;;;8.43;6.83;;;10.90;61.50;;;;;;5096633;28;20604;-84
2021/04/18 12:02:52;;;;;;;9.60;8.30;;;10.90;58.70;;;;;;5082815;28;20639;-84
2021/04/18 12:05:19;;;;;;;8.03;6.93;;;11.00;59.40;;;;;;5102646;28;20616;-84
2021/04/18 12:07:46;;;;;;;9.03;8.10;;;10.70;58.80;;;;;;5090875;28;20666;-83
2021/04/18 12:10:14;;;;;;;8.30;7.17;;;10.40;60.10;;;;;;5114141;28;20607;-84
2021/04/18 12:12:42;;;;;;;7.90;7.10;;;11.10;60.30;;;;;;5113616;28;20659;-84
2021/04/18 12:15:11;;;;;;;8.83;7.87;;;11.20;59.60;;;;;;5095325;28;20615;-84
2021/04/18 12:17:38;;;;;;;8.87;8.03;;;11.40;59.10;;;;;;5112614;28;20607;-84
2021/04/18 12:20:07;;;;;;;8.83;7.40;;;11.70;58.50;;;;;;5112583;28;21027;-84
2021/04/18 12:22:34;;;;;;;8.63;7.77;;;12.00;57.90;;;;;;5113747;28;20658;-85
2021/04/18 12:25:02;;;;;;;10.20;8.60;;;12.00;57.40;;;;;;5113364;28;20959;-84
2021/04/18 12:27:30;;;;;;;8.27;7.33;;;12.10;57.10;;;;;;5103565;28;21291;-84
2021/04/18 12:29:57;;;;;;;8.77;7.70;;;11.90;57.80;;;;;;5099890;28;21054;-84
2021/04/18 12:32:24;;;;;;;8.63;7.83;;;12.20;58.30;;;;;;5093527;28;20616;-84
2021/04/18 12:34:51;;;;;;;8.07;7.27;;;12.20;58.50;;;;;;5093165;28;20978;-85
2021/04/18 12:37:18;;;;;;;8.90;8.00;;;12.30;58.00;;;;;;5092615;28;20615;-84
2021/04/18 12:39:45;;;;;;;8.63;7.90;;;12.20;58.60;;;;;;5092531;28;20660;-85
2021/04/18 12:42:11;;;;;;;10.10;9.10;;;12.60;57.80;;;;;;5074933;28;20616;-84
2021/04/18 12:44:39;;;;;;;7.80;6.93;;;12.80;56.90;;;;;;5092833;28;20612;-83
2021/04/18 12:47:06;;;;;;;9.70;8.27;;;13.10;56.30;;;;;;5092930;28;20673;-84
2021/04/18 12:49:33;;;;;;;9.10;8.30;;;13.30;56.00;;;;;;5092686;28;20970;-85
2021/04/18 12:51:59;;;;;;;8.40;7.37;;;13.10;55.50;;;;;;5092768;28;20643;-84
2021/04/18 12:54:27;;;;;;;8.13;7.33;;;13.20;55.70;;;;;;5090591;28;20616;-84
2021/04/18 12:56:53;;;;;;;8.00;7.23;;;13.30;54.90;;;;;;5092317;28;20619;-84